Time;durP1;ratioP1;P1;durP2;ratioP2;P2;SDS_P1;SDS_P2;PMS_P1;PMS_P2;Temp;Humidity;BMP_temperature;BMP_pressure;BME280_temperature;BME280_humidity;BME280_pressure;Samples;Min_cycle;Max_cycle;Signal;HPM_P1;HPM_P2
2023/07/14 00:01:19;;;;;;;4.57;2.90;;;;;;;13.43;100.00;96429.41;7401429;19;20387;-88
2023/07/14 00:03:48;;;;;;;4.23;3.67;;;;;;;12.95;100.00;96402.00;7400934;19;20396;-88
2023/07/14 00:06:16;;;;;;;4.90;3.30;;;;;;;13.50;100.00;96489.91;7400915;19;20398;-88
2023/07/14 00:08:45;;;;;;;5.20;3.83;;;;;;;13.74;100.00;96520.88;7399083;19;20414;-88
2023/07/14 00:11:18;;;;;;;6.70;3.50;;;;;;;12.70;100.00;96361.53;7399925;19;20393;-89
2023/07/14 00:13:45;;;;;;;4.00;2.87;;;;;;;12.90;100.00;96399.56;7399606;19;20907;-89
2023/07/14 00:16:15;;;;;;;3.40;3.10;;;;;;;12.89;100.00;96402.56;7400860;19;20371;-88
2023/07/14 00:18:43;;;;;;;4.97;3.30;;;;;;;13.30;100.00;96457.13;7399161;19;20834;-89
2023/07/14 00:21:22;;;;;;;6.40;3.10;;;;;;;13.94;100.00;96533.16;7400224;19;20378;-89
2023/07/14 00:23:54;;;;;;;4.13;2.93;;;;;;;13.23;100.00;96430.41;7398649;19;20882;-88
2023/07/14 00:26:21;;;;;;;5.20;3.27;;;;;;;13.16;100.00;96456.75;7398612;19;20401;-88
2023/07/14 00:28:49;;;;;;;6.17;3.30;;;;;;;13.63;100.00;96485.31;7399566;19;20441;-89
2023/07/14 00:31:19;;;;;;;3.40;3.07;;;;;;;13.47;100.00;96480.72;7400741;19;20955;-88
2023/07/14 00:33:49;;;;;;;3.10;2.57;;;;;;;12.49;100.00;96360.94;7400748;19;20395;-88
2023/07/14 00:36:17;;;;;;;3.33;3.03;;;;;;;13.38;100.00;96532.47;7401811;19;20398;-88
2023/07/14 00:38:45;;;;;;;5.03;2.97;;;;;;;12.37;100.00;96340.53;7406184;19;20429;-88
2023/07/14 00:41:23;;;;;;;5.00;3.00;;;;;;;12.91;100.00;96422.34;7402571;19;20393;-88
2023/07/14 00:43:51;;;;;;;5.13;2.63;;;;;;;12.49;100.00;96374.19;7403064;19;20390;-88
2023/07/14 00:46:26;;;;;;;7.33;3.40;;;;;;;12.52;100.00;96372.75;7399234;19;20446;-88
2023/07/14 00:48:57;;;;;;;3.13;2.83;;;;;;;12.70;100.00;96405.84;7400581;19;20774;-89
2023/07/14 00:51:26;;;;;;;4.07;3.17;;;;;;;13.15;100.00;96479.09;7402088;19;20453;-88
2023/07/14 00:53:54;;;;;;;3.50;3.00;;;;;;;13.22;100.00;96482.75;7396304;19;20388;-88
2023/07/14 00:56:43;;;;;;;3.57;3.27;;;;;;;13.36;100.00;96502.81;7399008;19;20413;-88
2023/07/14 00:59:16;;;;;;;3.77;3.40;;;;;;;12.87;100.00;96450.66;7396511;19;20438;-88
2023/07/14 01:02:21;;;;;;;4.80;3.57;;;;;;;13.20;100.00;96522.13;7400554;19;20494;-88
2023/07/14 01:04:54;;;;;;;6.03;3.50;;;;;;;13.26;100.00;96520.00;7400898;19;20378;-88
2023/07/14 01:07:28;;;;;;;7.23;3.60;;;;;;;13.07;100.00;96475.47;7398925;19;20372;-89
2023/07/14 01:09:58;;;;;;;3.77;3.20;;;;;;;13.00;100.00;96488.56;7397353;19;20438;-89
2023/07/14 01:12:28;;;;;;;5.70;2.70;;;;;;;12.92;100.00;96479.59;7398832;19;20379;-89
2023/07/14 01:14:58;;;;;;;4.73;3.07;;;;;;;12.71;100.00;96489.63;7398481;19;20740;-89
2023/07/14 01:17:25;;;;;;;4.97;3.60;;;;;;;12.64;100.00;96487.53;7399190;19;20403;-89
2023/07/14 01:20:01;;;;;;;2.63;2.43;;;;;;;12.18;100.00;96456.25;7395702;19;21020;-89
2023/07/14 01:22:59;;;;;;;5.67;2.73;;;;;;;12.69;100.00;96507.78;7404151;19;20766;-89
2023/07/14 01:25:29;;;;;;;3.50;2.60;;;;;;;12.74;100.00;96502.22;7405113;19;20772;-88
2023/07/14 01:27:56;;;;;;;6.00;3.10;;;;;;;12.77;100.00;96469.72;7405147;19;20437;-88
2023/07/14 01:30:24;;;;;;;2.43;2.30;;;;;;;12.88;100.00;96477.97;7404423;19;20395;-88
2023/07/14 01:32:51;;;;;;;3.70;3.03;;;;;;;12.62;100.00;96455.28;7407716;19;20428;-89
2023/07/14 01:35:24;;;;;;;4.37;2.67;;;;;;;12.51;100.00;96480.72;7410611;19;20380;-88
2023/07/14 01:37:51;;;;;;;2.57;2.37;;;;;;;12.63;100.00;96483.34;7414086;19;20386;-89
2023/07/14 01:40:18;;;;;;;3.30;2.57;;;;;;;12.48;100.00;96448.78;7416698;19;20413;-89
2023/07/14 01:42:58;;;;;;;2.93;2.73;;;;;;;12.68;100.00;96469.06;7406363;19;20373;-89
2023/07/14 01:45:42;;;;;;;3.10;2.83;;;;;;;12.91;100.00;96501.94;7407562;19;20461;-89
2023/07/14 01:48:17;;;;;;;4.40;2.93;;;;;;;12.72;100.00;96468.06;7406223;19;20877;-88
2023/07/14 01:50:48;;;;;;;6.70;3.10;;;;;;;12.69;100.00;96521.81;7404621;19;20388;-89
2023/07/14 01:53:21;;;;;;;3.80;2.67;;;;;;;12.27;100.00;96444.38;7405472;19;20726;-88
2023/07/14 01:55:51;;;;;;;5.30;2.70;;;;;;;12.47;100.00;96510.91;7401934;19;20379;-88
2023/07/14 01:58:30;;;;;;;10.50;3.17;;;;;;;12.48;100.00;96462.03;7404962;19;20424;-88
2023/07/14 02:00:58;;;;;;;3.13;2.83;;;;;;;12.39;100.00;96456.84;7405234;19;20928;-88
2023/07/14 02:03:46;;;;;;;4.60;3.60;;;;;;;12.50;100.00;96451.88;7407996;19;20397;-88
2023/07/14 02:06:14;;;;;;;5.90;3.07;;;;;;;12.55;100.00;96483.47;7407809;19;20398;-88
2023/07/14 02:08:44;;;;;;;4.27;3.17;;;;;;;12.13;100.00;96462.53;7410054;19;20437;-89
2023/07/14 02:11:17;;;;;;;5.70;2.60;;;;;;;12.45;100.00;96513.09;7419756;19;20397;-88
2023/07/14 02:13:44;;;;;;;3.63;2.47;;;;;;;12.49;100.00;96514.75;7407858;19;20381;-89
2023/07/14 02:16:15;;;;;;;3.10;2.33;;;;;;;12.00;100.00;96471.56;7404125;19;20410;-88
2023/07/14 02:18:44;;;;;;;5.90;3.40;;;;;;;11.96;100.00;96476.78;7402843;19;20437;-88
2023/07/14 02:21:14;;;;;;;3.97;2.77;;;;;;;11.78;100.00;96517.81;7406010;19;20375;-88
2023/07/14 02:23:42;;;;;;;6.27;3.00;;;;;;;11.80;100.00;96489.13;7404509;19;20381;-89
2023/07/14 02:26:18;;;;;;;4.43;3.53;;;;;;;11.97;100.00;96518.06;7404895;19;20371;-89
2023/07/14 02:28:46;;;;;;;2.63;2.43;;;;;;;12.23;100.00;96525.69;7399318;19;20431;-88
2023/07/14 02:31:30;;;;;;;7.70;2.73;;;;;;;12.41;100.00;96516.41;7401791;19;20396;-89
2023/07/14 02:33:59;;;;;;;5.47;3.90;;;;;;;12.19;100.00;96527.47;7404084;19;20452;-88
2023/07/14 02:37:00;;;;;;;3.50;3.17;;;;;;;11.78;100.00;96521.22;7403214;19;20396;-88
2023/07/14 02:39:35;;;;;;;5.83;3.20;;;;;;;11.45;100.00;96507.22;7400297;19;20416;-88
2023/07/14 02:42:04;;;;;;;4.13;3.30;;;;;;;11.15;100.00;96530.41;7405104;19;20387;-88
2023/07/14 02:44:35;;;;;;;3.77;3.03;;;;;;;11.07;100.00;96529.34;7403317;19;20395;-88
2023/07/14 02:47:05;;;;;;;4.60;3.37;;;;;;;11.29;100.00;96528.25;7405736;19;20408;-88
2023/07/14 02:49:32;;;;;;;4.60;3.20;;;;;;;10.85;100.00;96472.28;7401078;19;20404;-88
2023/07/14 02:51:59;;;;;;;4.43;3.50;;;;;;;11.32;100.00;96526.81;7405131;19;20398;-88
2023/07/14 02:54:27;;;;;;;3.07;2.77;;;;;;;11.38;100.00;96499.84;7402199;19;20404;-89
2023/07/14 02:56:54;;;;;;;4.13;3.17;;;;;;;11.40;100.00;96496.84;7404984;19;20385;-88
2023/07/14 02:59:21;;;;;;;3.13;2.83;;;;;;;11.24;100.00;96473.66;7401552;19;20421;-88
2023/07/14 03:01:48;;;;;;;4.50;3.27;;;;;;;11.40;100.00;96524.09;7404195;19;20395;-88
2023/07/14 03:04:17;;;;;;;6.27;2.97;;;;;;;11.04;100.00;96476.31;7403425;19;20402;-87
2023/07/14 03:06:44;;;;;;;3.10;2.83;;;;;;;10.92;100.00;96448.72;7401982;19;20389;-88
2023/07/14 03:09:13;;;;;;;3.33;2.80;;;;;;;11.50;100.00;96538.81;7401436;19;20444;-89
2023/07/14 03:11:40;;;;;;;3.37;2.87;;;;;;;11.20;100.00;96496.56;7401024;19;20388;-89
2023/07/14 03:14:08;;;;;;;9.27;2.90;;;;;;;11.00;100.00;96492.06;7402812;19;20389;-89
2023/07/14 03:16:36;;;;;;;3.03;2.83;;;;;;;11.45;100.00;96531.06;7402060;19;20403;-89
2023/07/14 03:19:03;;;;;;;5.83;3.10;;;;;;;11.11;100.00;96484.53;7402097;19;20409;-89
2023/07/14 03:21:31;;;;;;;4.40;4.07;;;;;;;11.35;100.00;96487.25;7401106;19;20391;-89
2023/07/14 03:23:58;;;;;;;6.60;3.00;;;;;;;11.54;100.00;96498.09;7402877;19;20353;-89
2023/07/14 03:26:26;;;;;;;5.10;2.90;;;;;;;11.41;100.00;96527.53;7405855;19;20389;-89
2023/07/14 03:28:53;;;;;;;4.87;3.47;;;;;;;10.64;100.00;96482.84;7402193;19;20452;-89
2023/07/14 03:31:20;;;;;;;3.30;3.00;;;;;;;10.89;100.00;96512.84;7400946;19;20412;-90
2023/07/14 03:33:47;;;;;;;3.87;3.30;;;;;;;10.94;100.00;96501.28;7402276;19;20384;-90
2023/07/14 03:36:14;;;;;;;3.07;2.87;;;;;;;10.63;100.00;96460.16;7400175;19;20378;-90
2023/07/14 03:38:44;;;;;;;3.20;3.00;;;;;;;10.93;100.00;96484.66;7400457;19;20928;-90
2023/07/14 03:41:13;;;;;;;5.63;2.80;;;;;;;10.62;100.00;96432.16;7400432;19;20369;-90
2023/07/14 03:43:41;;;;;;;6.93;3.63;;;;;;;11.07;100.00;96473.78;7401888;19;20400;-90
2023/07/14 03:46:08;;;;;;;5.70;3.00;;;;;;;10.48;100.00;96405.22;7400453;19;20409;-89
2023/07/14 03:48:35;;;;;;;3.33;2.80;;;;;;;10.94;100.00;96475.59;7400860;19;20416;-89
2023/07/14 03:51:03;;;;;;;3.70;3.40;;;;;;;11.16;100.00;96513.41;7400553;19;20389;-90
2023/07/14 03:53:31;;;;;;;3.43;3.13;;;;;;;9.85;100.00;96325.13;7402321;19;20409;-90
2023/07/14 03:55:58;;;;;;;3.97;3.20;;;;;;;10.24;100.00;96378.66;7399557;19;20401;-89
2023/07/14 03:58:25;;;;;;;3.10;2.90;;;;;;;10.20;100.00;96344.16;7413868;19;20520;-90
2023/07/14 04:00:58;;;;;;;2.90;2.70;;;;;;;10.34;100.00;96349.22;7423852;19;20394;-89
2023/07/14 04:03:25;;;;;;;3.80;3.50;;;;;;;9.93;100.00;96279.41;7425854;19;20390;-90
2023/07/14 04:05:52;;;;;;;3.40;3.10;;;;;;;10.84;100.00;96395.91;7423778;19;20381;-90
2023/07/14 04:08:19;;;;;;;4.70;3.93;;;;;;;11.54;100.00;96510.56;7406947;19;20417;-90
2023/07/14 04:10:46;;;;;;;3.90;3.53;;;;;;;9.86;100.00;96268.56;7400192;19;20417;-90
2023/07/14 04:13:13;;;;;;;3.00;2.80;;;;;;;10.65;100.00;96431.50;7398816;19;20413;-90
2023/07/14 04:15:40;;;;;;;7.33;3.33;;;;;;;11.35;100.00;96513.72;7399289;19;20401;-90
2023/07/14 04:18:07;;;;;;;5.13;3.23;;;;;;;11.28;100.00;96434.06;7398440;19;20999;-90
2023/07/14 04:20:34;;;;;;;3.50;3.30;;;;;;;11.90;100.00;96494.00;7399576;19;20415;-90
2023/07/14 04:23:01;;;;;;;3.20;3.00;;;;;;;11.51;100.00;96463.56;7397530;19;20369;-90
2023/07/14 04:25:28;;;;;;;4.30;3.47;;;;;;;11.69;100.00;96486.09;7399689;19;20386;-91
2023/07/14 04:27:55;;;;;;;3.50;3.20;;;;;;;11.13;100.00;96400.28;7397518;19;20416;-90
2023/07/14 04:30:22;;;;;;;5.03;3.47;;;;;;;11.32;100.00;96395.22;7399687;19;20394;-91
2023/07/14 04:32:51;;;;;;;5.43;3.13;;;;;;;12.35;100.00;96487.81;7398493;19;20395;-91
2023/07/14 04:35:19;;;;;;;4.13;3.30;;;;;;;12.56;100.00;96480.50;7399350;19;20381;-91
2023/07/14 04:37:46;;;;;;;4.10;3.70;;;;;;;11.82;100.00;96394.19;7397338;19;20472;-91
2023/07/14 04:40:13;;;;;;;5.27;3.67;;;;;;;11.40;100.00;96367.91;7401346;19;20396;-91
2023/07/14 04:43:00;;;;;;;5.13;3.50;;;;;;;11.75;100.00;96367.44;7401768;19;20394;-88
2023/07/14 04:45:27;;;;;;;9.20;3.37;;;;;;;11.60;100.00;96349.59;7402130;19;20399;-88
2023/07/14 04:47:56;;;;;;;4.93;3.50;;;;;;;11.73;100.00;96343.94;7402648;19;20393;-88
2023/07/14 04:50:29;;;;;;;3.40;3.10;;;;;;;12.91;100.00;96507.25;7401640;19;20385;-88
2023/07/14 04:52:56;;;;;;;4.30;3.40;;;;;;;11.46;100.00;96318.16;7403623;19;20393;-88
2023/07/14 04:55:25;;;;;;;9.50;3.70;;;;;;;12.38;100.00;96460.63;7401807;19;21016;-88
2023/07/14 04:57:52;;;;;;;5.13;3.70;;;;;;;12.64;100.00;96484.88;7400227;19;20403;-88
2023/07/14 05:00:25;;;;;;;4.10;3.20;;;;;;;12.62;100.00;96479.16;7398225;19;20405;-88
2023/07/14 05:02:52;;;;;;;3.80;3.20;;;;;;;13.14;100.00;96473.00;7400236;19;20397;-89
2023/07/14 05:05:21;;;;;;;3.50;3.20;;;;;;;13.80;100.00;96522.94;7399907;19;20399;-89
2023/07/14 05:07:48;;;;;;;4.70;3.10;;;;;;;13.67;100.00;96502.09;7399865;19;20912;-88
2023/07/14 05:10:17;;;;;;;5.40;3.67;;;;;;;13.28;100.00;96441.56;7398214;19;20392;-88
2023/07/14 05:12:44;;;;;;;6.57;4.93;;;;;;;13.96;100.00;96461.81;7398883;19;20356;-88
2023/07/14 05:15:14;;;;;;;3.97;3.60;;;;;;;13.77;100.00;96448.44;7399811;19;20762;-88
2023/07/14 05:17:44;;;;;;;6.80;3.37;;;;;;;14.15;100.00;96451.22;7401520;19;20389;-88
2023/07/14 05:20:12;;;;;;;5.90;3.90;;;;;;;13.97;100.00;96409.41;7398413;19;20477;-88
2023/07/14 05:22:51;;;;;;;5.33;4.40;;;;;;;13.53;100.00;96394.38;7400404;19;20743;-88
2023/07/14 05:25:19;;;;;;;6.57;3.90;;;;;;;14.29;100.00;96516.50;7398901;19;20390;-88
2023/07/14 05:27:46;;;;;;;3.60;3.30;;;;;;;13.83;100.00;96495.69;7396535;19;20925;-88
2023/07/14 05:30:16;;;;;;;8.23;3.80;;;;;;;13.84;100.00;96485.81;7397950;19;20759;-88
2023/07/14 05:32:45;;;;;;;4.50;3.40;;;;;;;14.15;100.00;96495.66;7397361;19;20370;-88
2023/07/14 05:35:13;;;;;;;4.80;3.57;;;;;;;14.28;100.00;96506.97;7398719;19;20404;-89
2023/07/14 05:37:41;;;;;;;10.13;4.23;;;;;;;14.46;100.00;96495.66;7397412;19;20931;-88
2023/07/14 05:40:10;;;;;;;4.73;3.47;;;;;;;14.10;100.00;96368.31;7399621;19;20391;-88
2023/07/14 05:42:38;;;;;;;5.10;3.90;;;;;;;14.57;100.00;96405.44;7398291;19;20422;-89
2023/07/14 05:45:06;;;;;;;6.73;4.80;;;;;;;15.53;100.00;96534.34;7398668;19;20360;-88
2023/07/14 05:47:35;;;;;;;5.43;3.73;;;;;;;15.72;100.00;96522.88;7395521;19;20367;-89
2023/07/14 05:50:05;;;;;;;4.40;4.00;;;;;;;15.16;100.00;96446.09;7396648;19;20403;-88
2023/07/14 05:52:33;;;;;;;4.50;4.10;;;;;;;15.61;100.00;96474.72;7395745;19;20405;-88
2023/07/14 05:55:06;;;;;;;7.73;3.83;;;;;;;15.87;100.00;96506.78;7396329;19;20425;-88
2023/07/14 05:57:36;;;;;;;4.70;3.43;;;;;;;15.69;100.00;96502.28;7395690;19;20393;-88
2023/07/14 06:00:11;;;;;;;6.13;3.50;;;;;;;16.47;100.00;96532.88;7398020;19;20390;-89
2023/07/14 06:02:43;;;;;;;5.93;3.30;;;;;;;15.77;100.00;96390.06;7396063;19;20410;-89
2023/07/14 06:05:10;;;;;;;4.47;3.60;;;;;;;16.61;100.00;96502.94;7394340;19;20374;-89
2023/07/14 06:07:38;;;;;;;5.70;2.90;;;;;;;16.52;100.00;96503.19;7397836;19;20355;-89
2023/07/14 06:10:06;;;;;;;4.00;3.10;;;;;;;15.49;100.00;96344.28;7404363;19;20340;-88
2023/07/14 06:12:33;;;;;;;4.63;3.37;;;;;;;16.11;100.00;96443.53;7401288;19;20440;-90
2023/07/14 06:15:00;;;;;;;3.60;3.30;;;;;;;16.35;100.00;96485.03;7401892;19;20395;-90
2023/07/14 06:17:28;;;;;;;4.93;3.17;;;;;;;15.89;100.00;96335.75;7404239;19;20391;-90
2023/07/14 06:19:55;;;;;;;3.83;3.47;;;;;;;17.24;100.00;96478.97;7399125;19;20430;-90
2023/07/14 06:22:22;;;;;;;6.93;3.40;;;;;;;17.03;100.00;96441.31;7404332;19;21009;-90
2023/07/14 06:24:49;;;;;;;5.53;3.50;;;;;;;17.18;100.00;96431.56;7403367;19;20384;-90
2023/07/14 06:27:17;;;;;;;4.03;3.63;;;;;;;17.74;100.00;96450.06;7402436;19;20399;-89
2023/07/14 06:29:45;;;;;;;4.63;3.60;;;;;;;17.23;100.00;96423.19;7399288;19;20431;-89
2023/07/14 06:32:15;;;;;;;8.23;3.80;;;;;;;16.36;100.00;96319.22;7401049;19;20425;-93
2023/07/14 06:34:43;;;;;;;2.97;2.73;;;;;;;17.61;100.00;96465.56;7403007;19;20399;-92
2023/07/14 06:37:10;;;;;;;2.97;2.67;;;;;;;17.89;100.00;96456.28;7404679;19;20391;-93
2023/07/14 06:39:37;;;;;;;6.20;3.00;;;;;;;17.73;100.00;96371.72;7400192;19;21050;-92
2023/07/14 06:42:05;;;;;;;3.47;2.97;;;;;;;18.56;98.29;96472.03;7404047;19;20402;-92
2023/07/14 06:44:32;;;;;;;3.27;2.80;;;;;;;18.76;93.50;96467.97;7400996;19;20405;-94
2023/07/14 06:46:59;;;;;;;4.23;3.47;;;;;;;19.08;93.34;96539.72;7403775;19;20393;-93
2023/07/14 06:49:26;;;;;;;6.70;3.00;;;;;;;17.73;95.56;96298.75;7399919;19;20455;-93
2023/07/14 06:51:57;;;;;;;4.93;4.40;;;;;;;17.70;94.17;96297.59;7400630;19;20409;-93
2023/07/14 06:54:28;;;;;;;5.00;4.63;;;;;;;17.63;93.28;96315.50;7401567;19;20452;-92
2023/07/14 06:56:57;;;;;;;3.63;3.33;;;;;;;18.01;91.97;96306.94;7402034;19;20754;-92
2023/07/14 06:59:25;;;;;;;4.33;3.23;;;;;;;17.51;90.85;96239.03;7398872;19;20424;-92
2023/07/14 07:01:52;;;;;;;7.70;3.67;;;;;;;18.89;88.96;96358.56;7398507;19;20393;-93
2023/07/14 07:04:46;;;;;;;4.53;3.03;;;;;;;18.48;90.04;96285.72;7400822;19;20384;-93
2023/07/14 07:08:45;;;;;;;;;;;;;;;;;;;;;
2023/07/14 07:12:04;;;;;;;5.10;3.27;;;;;;;19.66;86.45;96357.16;7391968;19;20396;-92
2023/07/14 07:14:33;;;;;;;5.93;3.63;;;;;;;19.10;83.09;96245.28;7398846;19;20397;-93
2023/07/14 07:17:04;;;;;;;4.20;3.27;;;;;;;18.99;82.21;96210.44;7399120;19;20384;-93
2023/07/14 07:20:12;;;;;;;7.83;4.27;;;;;;;19.48;82.83;96265.16;7396183;19;20421;-93
2023/07/14 07:23:06;;;;;;;5.67;2.87;;;;;;;20.15;81.32;96344.00;7397190;19;20448;-92
2023/07/14 07:26:31;;;;;;;;;;;;;;;;;;;;;
2023/07/14 07:29:38;;;;;;;10.80;3.30;;;;;;;19.55;79.38;96293.91;7394066;19;20442;-93
2023/07/14 07:32:30;;;;;;;3.10;2.80;;;;;;;21.67;77.65;96511.25;7396575;19;20398;-93
2023/07/14 07:35:08;;;;;;;5.20;3.33;;;;;;;20.04;76.05;96248.19;7398008;19;20388;-92
2023/07/14 07:37:38;;;;;;;3.17;2.53;;;;;;;20.02;73.48;96247.78;7396608;19;20410;-93
2023/07/14 07:40:13;;;;;;;7.20;2.37;;;;;;;21.03;74.30;96387.84;7397796;19;20406;-93
2023/07/14 07:42:44;;;;;;;3.87;2.90;;;;;;;21.08;71.05;96372.06;7397126;19;20927;-93
2023/07/14 07:45:17;;;;;;;5.60;3.10;;;;;;;21.78;71.35;96517.34;7399469;19;20932;-93
2023/07/14 07:47:46;;;;;;;3.57;2.80;;;;;;;20.73;69.04;96307.75;7397863;19;20418;-92
2023/07/14 07:50:13;;;;;;;3.00;1.77;;;;;;;21.11;67.26;96344.41;7402811;19;20406;-94
2023/07/14 07:52:45;;;;;;;5.97;2.70;;;;;;;21.00;68.47;96334.88;7401591;19;20409;-93
2023/07/14 07:55:12;;;;;;;5.30;2.80;;;;;;;22.12;68.69;96475.16;7400371;19;20414;-92
2023/07/14 07:57:40;;;;;;;2.00;1.80;;;;;;;22.00;64.52;96515.25;7399253;19;20383;-93
2023/07/14 08:00:11;;;;;;;2.70;1.97;;;;;;;21.40;65.67;96385.34;7401584;19;20502;-92
2023/07/14 08:02:40;;;;;;;4.40;2.10;;;;;;;21.72;63.49;96379.69;7402209;19;20357;-93
2023/07/14 08:05:10;;;;;;;2.40;1.83;;;;;;;21.90;61.99;96389.53;7403056;19;20387;-93
2023/07/14 08:07:37;;;;;;;3.47;2.00;;;;;;;21.16;60.74;96247.16;7400174;19;20406;-92
2023/07/14 08:10:05;;;;;;;3.30;1.77;;;;;;;21.87;61.04;96299.56;7397921;19;20401;-93
2023/07/14 08:12:32;;;;;;;2.80;1.70;;;;;;;22.31;59.93;96373.41;7398144;19;20437;-91
2023/07/14 08:15:00;;;;;;;1.70;1.20;;;;;;;22.94;58.26;96509.44;7396551;19;20412;-92
2023/07/14 08:17:31;;;;;;;1.90;1.40;;;;;;;22.16;57.84;96393.56;7400689;19;20914;-92
2023/07/14 08:19:59;;;;;;;4.63;1.63;;;;;;;22.34;56.33;96435.34;7396249;19;20420;-92
2023/07/14 08:22:26;;;;;;;2.07;1.87;;;;;;;21.49;57.38;96344.50;7396794;19;20387;-92
2023/07/14 08:24:56;;;;;;;1.93;1.30;;;;;;;21.21;58.42;96340.84;7400390;19;20395;-93
2023/07/14 08:27:23;;;;;;;6.00;2.63;;;;;;;21.15;58.31;96329.00;7401614;19;20387;-92
2023/07/14 08:29:52;;;;;;;3.67;1.90;;;;;;;21.74;58.93;96417.75;7401676;19;20410;-92
2023/07/14 08:32:20;;;;;;;2.30;1.63;;;;;;;22.09;58.67;96499.44;7403727;19;20466;-93
2023/07/14 08:34:47;;;;;;;3.10;1.80;;;;;;;22.87;58.21;96490.66;7408991;19;20400;-92
2023/07/14 08:37:25;;;;;;;3.00;1.60;;;;;;;22.13;56.73;96360.13;7422715;19;20405;-92
2023/07/14 08:40:32;;;;;;;4.30;1.80;;;;;;;22.29;56.44;96311.06;7420141;19;20447;-91
2023/07/14 08:43:51;;;;;;;2.90;1.97;;;;;;;23.70;56.59;96493.09;7398595;19;20383;-91
2023/07/14 08:46:57;;;;;;;4.20;2.00;;;;;;;23.94;57.31;96467.66;7397632;19;20376;-92
2023/07/14 08:49:45;;;;;;;2.33;2.10;;;;;;;23.32;56.27;96482.41;7394776;19;20423;-92
2023/07/14 08:56:03;;;;;;;3.33;2.10;;;;;;;22.12;56.09;96278.56;7398659;19;20451;-92
2023/07/14 08:58:40;;;;;;;4.33;2.27;;;;;;;23.54;56.18;96474.78;7395574;19;20437;-91
2023/07/14 09:01:26;;;;;;;4.73;1.77;;;;;;;22.21;54.58;96207.28;7397993;19;20393;-92
2023/07/14 09:04:03;;;;;;;6.20;1.90;;;;;;;23.52;54.11;96488.69;7397905;19;20733;-93
2023/07/14 09:06:47;;;;;;;2.83;1.70;;;;;;;21.48;54.88;96203.06;7400116;19;20374;-92
2023/07/14 09:09:36;;;;;;;4.90;1.60;;;;;;;21.92;51.99;96214.91;7397061;19;20437;-92
2023/07/14 09:12:16;;;;;;;4.93;1.63;;;;;;;23.34;51.71;96345.13;7396596;19;20388;-91
2023/07/14 09:15:16;;;;;;;5.93;1.97;;;;;;;23.72;52.04;96428.63;7398306;19;20407;-92
2023/07/14 09:18:16;;;;;;;6.40;2.03;;;;;;;23.81;50.36;96472.88;7398029;19;20384;-93
2023/07/14 09:21:14;;;;;;;2.80;1.80;;;;;;;23.92;48.78;96461.91;7396987;19;20961;-93
2023/07/14 09:24:03;;;;;;;2.03;1.93;;;;;;;24.25;50.52;96484.50;7396692;19;20392;-92
2023/07/14 09:26:33;;;;;;;3.80;2.30;;;;;;;22.92;52.05;96376.94;7397789;19;20398;-92
2023/07/14 09:29:10;;;;;;;4.93;2.10;;;;;;;22.45;53.46;96302.44;7397423;19;20418;-92
2023/07/14 09:31:40;;;;;;;3.40;2.37;;;;;;;23.72;50.90;96463.75;7396675;19;20409;-92
2023/07/14 09:34:23;;;;;;;5.27;1.93;;;;;;;22.50;48.78;96262.31;7397512;19;20401;-92
2023/07/14 09:36:52;;;;;;;3.10;2.30;;;;;;;22.85;48.72;96352.78;7397656;19;20379;-92
2023/07/14 09:39:26;;;;;;;4.50;1.80;;;;;;;23.57;50.76;96374.88;7395286;19;20435;-92
2023/07/14 09:41:57;;;;;;;3.13;1.80;;;;;;;22.79;50.82;96294.25;7399959;19;20379;-92
2023/07/14 09:44:25;;;;;;;4.00;2.47;;;;;;;24.10;48.46;96415.66;7403788;19;20392;-93
2023/07/14 09:46:53;;;;;;;3.43;1.90;;;;;;;23.88;49.84;96359.28;7405733;19;20391;-92
2023/07/14 09:49:24;;;;;;;3.83;1.87;;;;;;;24.09;48.43;96409.50;7402364;19;20441;-92
2023/07/14 09:52:13;;;;;;;3.13;2.07;;;;;;;23.17;49.92;96290.25;7403749;19;20748;-92
2023/07/14 09:54:57;;;;;;;2.50;2.20;;;;;;;23.58;50.31;96276.50;7403767;19;20396;-92
2023/07/14 09:57:32;;;;;;;3.47;1.70;;;;;;;24.45;50.04;96350.19;7401509;19;20408;-92
2023/07/14 10:00:19;;;;;;;3.13;2.07;;;;;;;24.21;48.92;96324.38;7404741;19;20406;-93
2023/07/14 10:03:01;;;;;;;5.60;2.13;;;;;;;23.65;49.68;96302.63;7404241;19;20385;-92
2023/07/14 10:05:47;;;;;;;2.20;1.70;;;;;;;23.97;50.77;96352.59;7403911;19;20403;-93
2023/07/14 10:08:44;;;;;;;2.40;2.07;;;;;;;23.59;51.87;96337.41;7403829;19;20778;-92
2023/07/14 10:11:17;;;;;;;3.90;2.27;;;;;;;23.35;52.26;96392.50;7404437;19;20394;-92
2023/07/14 10:13:52;;;;;;;4.97;2.23;;;;;;;23.61;50.59;96298.44;7409520;19;20397;-91
2023/07/14 10:16:20;;;;;;;4.60;2.27;;;;;;;23.51;49.65;96256.97;7405084;19;20440;-93
2023/07/14 10:18:53;;;;;;;4.90;2.37;;;;;;;23.53;49.25;96258.06;7401694;19;20422;-93
2023/07/14 10:21:30;;;;;;;6.30;3.20;;;;;;;23.92;49.06;96307.94;7402159;19;20399;-92
2023/07/14 10:24:04;;;;;;;2.77;1.97;;;;;;;24.34;48.73;96319.13;7403626;19;20781;-92
2023/07/14 10:26:38;;;;;;;3.60;1.87;;;;;;;24.25;49.11;96295.31;7402568;19;20483;-93
2023/07/14 10:29:14;;;;;;;5.50;2.07;;;;;;;24.67;48.90;96280.19;7402962;19;20449;-92
2023/07/14 10:31:51;;;;;;;2.47;2.00;;;;;;;25.41;49.16;96370.97;7402661;19;20393;-94
2023/07/14 10:34:36;;;;;;;4.03;1.60;;;;;;;24.54;48.25;96332.63;7403603;19;20377;-92
2023/07/14 10:37:16;;;;;;;2.40;1.97;;;;;;;23.43;49.24;96245.50;7411213;19;20409;-93
2023/07/14 10:39:48;;;;;;;5.33;2.07;;;;;;;24.16;48.25;96252.63;7406198;19;20425;-92
2023/07/14 10:42:20;;;;;;;3.10;2.43;;;;;;;24.74;47.97;96344.97;7414395;19;20409;-92
2023/07/14 10:44:48;;;;;;;3.07;2.00;;;;;;;24.86;47.21;96294.88;7405810;19;20451;-92
2023/07/14 10:47:24;;;;;;;3.30;2.30;;;;;;;25.15;46.73;96278.75;7400996;19;20391;-92
2023/07/14 10:50:17;;;;;;;4.03;1.70;;;;;;;24.75;45.74;96224.78;7401127;19;20422;-92
2023/07/14 10:52:53;;;;;;;2.30;2.10;;;;;;;25.24;46.81;96261.91;7403290;19;20433;-92
2023/07/14 10:55:26;;;;;;;3.07;1.63;;;;;;;25.16;46.59;96260.56;7399952;19;20434;-92
2023/07/14 10:58:00;;;;;;;3.60;1.60;;;;;;;24.41;45.82;96102.72;7402057;19;20395;-93
2023/07/14 11:00:45;;;;;;;4.40;2.40;;;;;;;25.58;45.88;96323.75;7400974;19;20387;-92
2023/07/14 11:03:28;;;;;;;1.83;1.70;;;;;;;25.86;46.00;96381.91;7401951;19;20422;-92
2023/07/14 11:06:04;;;;;;;4.00;2.37;;;;;;;25.24;45.92;96299.81;7401410;19;20475;-93
2023/07/14 11:08:34;;;;;;;3.13;2.27;;;;;;;24.55;45.74;96180.03;7399418;19;20413;-93
2023/07/14 11:11:22;;;;;;;2.87;1.93;;;;;;;24.08;47.13;96277.53;7401391;19;20693;-93
2023/07/14 11:14:28;;;;;;;2.47;2.20;;;;;;;24.30;47.84;96288.69;7399991;19;20888;-93
2023/07/14 11:16:59;;;;;;;5.30;1.77;;;;;;;24.46;49.12;96321.97;7421122;19;20429;-91
2023/07/14 11:19:48;;;;;;;3.70;1.83;;;;;;;24.91;47.91;96362.00;7426805;19;20424;-92
2023/07/14 11:22:33;;;;;;;1.83;1.60;;;;;;;24.27;48.34;96201.09;7431473;19;20382;-92
2023/07/14 11:25:20;;;;;;;2.30;1.80;;;;;;;26.19;45.68;96339.25;7420789;19;20431;-92
2023/07/14 11:27:59;;;;;;;3.47;1.70;;;;;;;26.67;45.32;96361.97;7401308;19;20389;-92
2023/07/14 11:30:36;;;;;;;2.63;1.97;;;;;;;26.75;44.61;96303.59;7400738;19;20394;-92
2023/07/14 11:33:21;;;;;;;3.67;2.30;;;;;;;25.72;45.05;96225.16;7399493;19;20424;-92
2023/07/14 11:36:10;;;;;;;2.43;1.97;;;;;;;26.34;44.51;96242.00;7424378;19;20408;-92
2023/07/14 11:38:57;;;;;;;5.90;2.17;;;;;;;26.53;44.74;96230.22;7429816;19;20417;-92
2023/07/14 11:41:26;;;;;;;2.47;1.70;;;;;;;26.56;44.20;96166.19;7428877;19;20426;-92
2023/07/14 11:43:54;;;;;;;2.70;1.67;;;;;;;26.79;43.77;96212.00;7401194;19;20403;-92
2023/07/14 11:46:24;;;;;;;2.73;2.53;;;;;;;26.10;43.72;96215.19;7399481;19;20395;-92
2023/07/14 11:48:54;;;;;;;3.20;2.43;;;;;;;26.19;44.13;96219.97;7396405;19;20436;-92
2023/07/14 11:51:51;;;;;;;3.30;2.23;;;;;;;25.01;44.13;96127.56;7419958;19;20428;-92
2023/07/14 11:54:41;;;;;;;2.13;1.93;;;;;;;26.77;44.85;96322.91;7427698;19;20383;-93
2023/07/14 11:57:17;;;;;;;2.60;2.37;;;;;;;26.61;44.46;96277.66;7399526;19;20433;-92
2023/07/14 12:00:26;;;;;;;4.53;3.10;;;;;;;27.20;43.31;96251.81;7397097;19;20421;-92
2023/07/14 12:02:53;;;;;;;3.80;1.83;;;;;;;26.70;43.79;96252.56;7398748;19;20727;-92
2023/07/14 12:05:22;;;;;;;2.97;2.70;;;;;;;27.77;42.95;96317.88;7395692;19;20425;-92
2023/07/14 12:08:04;;;;;;;3.10;2.80;;;;;;;26.90;43.05;96228.69;7398080;19;20387;-92